createdAt,value
2018-08-12T00:00:24.548Z,12.30
2018-08-12T00:02:53.528Z,12.30
2018-08-12T00:05:22.009Z,12.20
2018-08-12T00:07:50.423Z,12.20
2018-08-12T00:10:18.839Z,12.10
2018-08-12T00:12:47.298Z,12.00
2018-08-12T00:15:17.485Z,12.00
2018-08-12T00:17:46.065Z,12.00
2018-08-12T00:20:16.461Z,11.90
2018-08-12T00:22:45.134Z,11.90
2018-08-12T00:25:15.289Z,11.90
2018-08-12T00:27:43.794Z,11.90
2018-08-12T00:30:13.628Z,11.90
2018-08-12T00:32:42.369Z,11.80
2018-08-12T00:35:12.679Z,11.80
2018-08-12T00:37:41.487Z,11.70
2018-08-12T00:40:11.445Z,11.70
2018-08-12T00:42:39.880Z,11.70
2018-08-12T00:45:11.873Z,11.60
2018-08-12T00:47:40.357Z,11.50
2018-08-12T00:50:10.027Z,11.50
2018-08-12T00:52:38.476Z,11.50
2018-08-12T00:55:08.416Z,11.50
2018-08-12T00:57:36.823Z,11.40
2018-08-12T01:00:09.861Z,11.40
2018-08-12T01:02:38.300Z,11.40
2018-08-12T01:05:08.344Z,11.30
2018-08-12T01:07:37.090Z,11.30
2018-08-12T01:10:06.535Z,11.30
2018-08-12T01:12:34.952Z,11.30
2018-08-12T01:15:03.612Z,11.20
2018-08-12T01:17:32.028Z,11.20
2018-08-12T01:20:00.444Z,11.20
2018-08-12T01:22:28.987Z,11.20
2018-08-12T01:24:57.384Z,11.20
2018-08-12T01:27:25.775Z,11.20
2018-08-12T01:29:54.156Z,11.10
2018-08-12T01:32:22.571Z,11.10
2018-08-12T01:34:50.956Z,11.20
2018-08-12T01:37:19.365Z,11.10
2018-08-12T01:39:47.852Z,11.10
2018-08-12T01:42:16.280Z,11.00
2018-08-12T01:44:44.602Z,11.00
2018-08-12T01:47:13.002Z,11.00
2018-08-12T01:49:41.446Z,11.00
2018-08-12T01:52:09.882Z,10.90
2018-08-12T01:54:38.299Z,10.90
2018-08-12T01:57:06.741Z,10.90
2018-08-12T01:59:35.143Z,10.80
2018-08-12T02:02:03.695Z,10.80
2018-08-12T02:04:32.085Z,10.80
2018-08-12T02:07:00.507Z,10.80
2018-08-12T02:09:29.118Z,10.80
2018-08-12T02:11:57.502Z,10.70
2018-08-12T02:14:25.940Z,10.70
2018-08-12T02:16:54.531Z,10.70
2018-08-12T02:19:23.235Z,10.70
2018-08-12T02:21:51.629Z,10.70
2018-08-12T02:24:20.058Z,10.60
2018-08-12T02:26:48.531Z,10.60
2018-08-12T02:29:16.924Z,10.60
2018-08-12T02:31:45.303Z,10.60
2018-08-12T02:34:13.703Z,10.60
2018-08-12T02:36:42.132Z,10.50
2018-08-12T02:39:11.779Z,10.50
2018-08-12T02:41:40.240Z,10.40
2018-08-12T02:44:08.666Z,10.40
2018-08-12T02:46:37.068Z,10.40
2018-08-12T02:49:05.575Z,10.40
2018-08-12T02:51:34.126Z,10.40
2018-08-12T02:54:02.632Z,10.40
2018-08-12T02:56:31.000Z,10.30
2018-08-12T02:58:59.431Z,10.30
2018-08-12T03:01:27.996Z,10.30
2018-08-12T03:03:56.393Z,10.30
2018-08-12T03:06:24.804Z,10.20
2018-08-12T03:08:53.272Z,10.20
2018-08-12T03:11:21.758Z,10.20
2018-08-12T03:13:50.199Z,10.20
2018-08-12T03:16:18.618Z,10.20
2018-08-12T03:18:47.078Z,10.20
2018-08-12T03:21:15.503Z,10.20
2018-08-12T03:23:44.126Z,10.20
2018-08-12T03:26:12.572Z,10.20
2018-08-12T03:28:40.976Z,10.10
2018-08-12T03:31:09.354Z,10.10
2018-08-12T03:33:37.743Z,10.00
2018-08-12T03:36:06.316Z,10.00
2018-08-12T03:38:34.733Z,10.00
2018-08-12T03:41:03.137Z,10.00
2018-08-12T03:43:31.960Z,9.90
2018-08-12T03:46:00.339Z,9.90
2018-08-12T03:48:28.763Z,9.90
2018-08-12T03:50:57.111Z,9.90
2018-08-12T03:53:25.532Z,9.80
2018-08-12T03:55:53.935Z,9.80
2018-08-12T03:58:22.361Z,9.80
2018-08-12T04:00:50.791Z,9.80
2018-08-12T04:03:19.597Z,9.80
2018-08-12T04:05:48.003Z,9.80
2018-08-12T04:08:16.419Z,9.70
2018-08-12T04:10:44.858Z,9.70
2018-08-12T04:13:13.346Z,9.80
2018-08-12T04:15:41.697Z,9.70
2018-08-12T04:18:10.107Z,9.70
2018-08-12T04:20:38.529Z,9.70
2018-08-12T04:23:06.964Z,9.70
2018-08-12T04:25:35.355Z,9.70
2018-08-12T04:28:03.814Z,9.70
2018-08-12T04:30:32.214Z,9.70
2018-08-12T04:33:00.760Z,9.70
2018-08-12T04:35:29.135Z,9.70
2018-08-12T04:37:57.576Z,9.70
2018-08-12T04:40:26.015Z,9.70
2018-08-12T04:42:54.743Z,9.70
2018-08-12T04:45:23.132Z,9.80
2018-08-12T04:47:51.563Z,9.80
2018-08-12T04:50:20.289Z,9.80
2018-08-12T04:52:48.658Z,9.90
2018-08-12T04:55:17.033Z,9.90
2018-08-12T04:57:45.444Z,9.90
2018-08-12T05:00:13.811Z,10.00
2018-08-12T05:02:42.339Z,10.10
2018-08-12T05:05:10.746Z,10.10
2018-08-12T05:07:39.209Z,10.20
2018-08-12T05:10:08.110Z,10.30
2018-08-12T05:12:36.529Z,10.30
2018-08-12T05:15:06.610Z,10.40
2018-08-12T05:17:35.369Z,10.40
2018-08-12T05:20:04.008Z,10.50
2018-08-12T05:22:32.423Z,10.60
2018-08-12T05:25:00.760Z,10.60
2018-08-12T05:27:29.128Z,10.70
2018-08-12T05:29:57.476Z,10.80
2018-08-12T05:32:25.904Z,10.90
2018-08-12T05:34:54.345Z,11.00
2018-08-12T05:37:22.883Z,11.10
2018-08-12T05:39:51.723Z,11.20
2018-08-12T05:42:20.080Z,11.30
2018-08-12T05:44:48.468Z,11.50
2018-08-12T05:47:16.878Z,11.50
2018-08-12T05:49:45.283Z,11.70
2018-08-12T05:52:13.668Z,11.80
2018-08-12T05:54:42.048Z,11.90
2018-08-12T05:57:10.480Z,12.00
2018-08-12T05:59:38.798Z,12.10
2018-08-12T06:02:07.521Z,12.20
2018-08-12T06:04:35.962Z,12.30
2018-08-12T06:07:04.409Z,12.40
2018-08-12T06:09:32.801Z,12.60
2018-08-12T06:12:01.528Z,12.70
2018-08-12T06:14:30.054Z,12.80
2018-08-12T06:16:58.487Z,12.90
2018-08-12T06:19:27.133Z,12.90
2018-08-12T06:21:55.537Z,13.10
2018-08-12T06:24:23.975Z,13.20
2018-08-12T06:26:52.407Z,13.30
2018-08-12T06:29:20.775Z,13.40
2018-08-12T06:31:49.140Z,13.60
2018-08-12T06:34:17.599Z,13.90
2018-08-12T06:36:46.003Z,14.20
2018-08-12T06:39:14.350Z,14.50
2018-08-12T06:41:42.760Z,14.90
2018-08-12T06:44:11.198Z,15.20
2018-08-12T06:46:39.589Z,15.40
2018-08-12T06:49:08.029Z,15.80
2018-08-12T06:51:36.440Z,16.10
2018-08-12T06:54:04.997Z,16.40
2018-08-12T06:56:33.429Z,16.70
2018-08-12T06:59:01.752Z,17.00
2018-08-12T07:01:30.163Z,17.30
2018-08-12T07:03:58.511Z,17.50
2018-08-12T07:06:26.989Z,17.80
2018-08-12T07:08:55.589Z,18.00
2018-08-12T07:11:23.907Z,18.10
2018-08-12T07:13:52.697Z,18.40
2018-08-12T07:16:21.084Z,18.70
2018-08-12T07:18:49.419Z,18.90
2018-08-12T07:21:17.819Z,19.10
2018-08-12T07:23:46.304Z,19.30
2018-08-12T07:26:14.783Z,19.40
2018-08-12T07:28:43.174Z,19.50
2018-08-12T07:31:11.575Z,19.70
2018-08-12T07:33:40.008Z,20.00
2018-08-12T07:36:08.521Z,20.20
2018-08-12T07:38:36.948Z,20.50
2018-08-12T07:41:05.358Z,20.80
2018-08-12T07:43:34.005Z,21.00
2018-08-12T07:46:02.639Z,21.20
2018-08-12T07:48:31.491Z,21.40
2018-08-12T07:50:59.925Z,21.60
2018-08-12T07:53:28.515Z,21.90
2018-08-12T07:55:56.852Z,22.20
2018-08-12T07:58:26.247Z,22.40
2018-08-12T08:00:54.666Z,22.70
2018-08-12T08:03:23.035Z,22.80
2018-08-12T08:05:51.455Z,23.00
2018-08-12T08:08:20.248Z,23.20
2018-08-12T08:10:48.686Z,23.50
2018-08-12T08:13:17.071Z,23.70
2018-08-12T08:15:45.587Z,23.80
2018-08-12T08:18:14.498Z,24.00
2018-08-12T08:20:52.489Z,24.30
2018-08-12T08:23:22.686Z,24.60
2018-08-12T08:25:51.467Z,25.00
2018-08-12T08:28:19.892Z,25.20
2018-08-12T08:30:48.352Z,25.30
2018-08-12T08:33:16.839Z,25.40
2018-08-12T08:35:45.488Z,25.50
2018-08-12T08:38:14.076Z,25.70
2018-08-12T08:40:45.079Z,25.90
2018-08-12T08:43:13.521Z,26.10
2018-08-12T08:45:41.938Z,26.40
2018-08-12T08:48:10.341Z,26.50
2018-08-12T08:50:38.870Z,26.70
2018-08-12T08:53:07.456Z,26.70
2018-08-12T08:55:36.038Z,26.80
2018-08-12T08:58:04.481Z,27.00
2018-08-12T09:00:33.178Z,27.30
2018-08-12T09:03:01.664Z,27.40
2018-08-12T09:05:30.070Z,27.60
2018-08-12T09:07:58.516Z,27.70
2018-08-12T09:10:26.917Z,27.80
2018-08-12T09:12:55.727Z,27.90
2018-08-12T09:15:24.204Z,27.70
2018-08-12T09:17:52.643Z,28.10
2018-08-12T09:20:21.937Z,28.30
2018-08-12T09:22:50.466Z,28.30
2018-08-12T09:25:21.257Z,28.30
2018-08-12T09:27:49.849Z,28.40
2018-08-12T09:30:19.970Z,28.50
2018-08-12T09:32:50.363Z,28.80
2018-08-12T09:35:18.816Z,28.70
2018-08-12T09:37:47.401Z,28.80
2018-08-12T09:40:17.031Z,28.90
2018-08-12T09:42:46.348Z,28.90
2018-08-12T09:45:16.928Z,28.90
2018-08-12T09:47:45.477Z,29.10
2018-08-12T09:50:15.283Z,29.30
2018-08-12T09:52:43.924Z,29.40
2018-08-12T09:55:13.023Z,29.50
2018-08-12T09:57:41.426Z,29.70
2018-08-12T10:00:14.242Z,30.00
2018-08-12T10:02:42.758Z,30.20
2018-08-12T10:05:11.110Z,30.40
2018-08-12T10:07:39.604Z,30.50
2018-08-12T10:10:08.179Z,30.70
2018-08-12T10:12:36.858Z,30.70
2018-08-12T10:15:05.969Z,30.80
2018-08-12T10:17:34.514Z,31.00
2018-08-12T10:20:02.991Z,31.10
2018-08-12T10:22:31.421Z,31.30
2018-08-12T10:24:59.850Z,31.50
2018-08-12T10:27:28.266Z,31.60
2018-08-12T10:29:56.761Z,31.70
2018-08-12T10:32:25.202Z,31.90
2018-08-12T10:34:53.619Z,31.90
2018-08-12T10:37:22.507Z,32.00
2018-08-12T10:39:50.935Z,32.20
2018-08-12T10:42:19.493Z,32.30
2018-08-12T10:44:47.898Z,32.40
2018-08-12T10:47:16.334Z,32.30
2018-08-12T10:49:44.741Z,32.00
2018-08-12T10:52:13.187Z,32.00
2018-08-12T10:54:41.549Z,32.10
2018-08-12T10:57:10.179Z,32.30
2018-08-12T10:59:38.594Z,32.60
2018-08-12T11:02:07.098Z,32.90
2018-08-12T11:04:35.426Z,33.10
2018-08-12T11:07:04.879Z,33.20
2018-08-12T11:09:34.023Z,33.10
2018-08-12T11:12:03.438Z,33.10
2018-08-12T11:14:31.866Z,33.00
2018-08-12T11:17:00.287Z,33.00
2018-08-12T11:19:28.671Z,33.10
2018-08-12T11:21:57.054Z,33.20
2018-08-12T11:24:25.435Z,33.40
2018-08-12T11:26:53.880Z,33.70
2018-08-12T11:29:22.232Z,33.80
2018-08-12T11:31:50.663Z,34.00
2018-08-12T11:34:19.164Z,33.70
2018-08-12T11:36:47.543Z,33.60
2018-08-12T11:39:15.893Z,33.80
2018-08-12T11:41:44.270Z,33.70
2018-08-12T11:44:12.681Z,34.00
2018-08-12T11:46:41.138Z,34.10
2018-08-12T11:49:09.553Z,34.30
2018-08-12T11:51:37.984Z,34.30
2018-08-12T11:54:06.399Z,34.30
2018-08-12T11:56:34.900Z,34.30
2018-08-12T11:59:03.381Z,34.10
2018-08-12T12:01:31.815Z,34.20
2018-08-12T12:04:00.594Z,34.20
2018-08-12T12:06:29.862Z,34.30
2018-08-12T12:08:59.121Z,34.30
2018-08-12T12:11:28.053Z,34.20
2018-08-12T12:13:57.569Z,34.20
2018-08-12T12:16:26.009Z,34.30
2018-08-12T12:18:54.613Z,34.30
2018-08-12T12:21:23.080Z,34.30
2018-08-12T12:23:51.456Z,34.40
2018-08-12T12:26:20.015Z,34.60
2018-08-12T12:28:49.513Z,34.90
2018-08-12T12:31:17.979Z,35.10
2018-08-12T12:33:46.488Z,35.30
2018-08-12T12:36:15.032Z,35.30
2018-08-12T12:38:43.507Z,35.40
2018-08-12T12:41:12.177Z,35.30
2018-08-12T12:43:41.034Z,35.30
2018-08-12T12:46:09.815Z,35.20
2018-08-12T12:48:38.248Z,35.00
2018-08-12T12:51:06.628Z,35.00
2018-08-12T12:53:36.449Z,35.10
2018-08-12T12:56:04.992Z,35.30
2018-08-12T12:58:33.424Z,35.30
2018-08-12T13:01:01.903Z,35.50
2018-08-12T13:03:30.514Z,35.50
2018-08-12T13:05:58.922Z,35.50
2018-08-12T13:08:27.294Z,35.40
2018-08-12T13:10:55.984Z,35.50
2018-08-12T13:13:24.363Z,35.60
2018-08-12T13:15:52.755Z,35.60
2018-08-12T13:18:21.287Z,35.70
2018-08-12T13:20:49.701Z,35.70
2018-08-12T13:23:18.160Z,35.60
2018-08-12T13:25:46.591Z,35.50
2018-08-12T13:28:15.074Z,35.60
2018-08-12T13:30:43.853Z,35.80
2018-08-12T13:33:12.428Z,36.00
2018-08-12T13:35:41.257Z,36.30
2018-08-12T13:38:09.988Z,36.40
2018-08-12T13:40:39.113Z,36.70
2018-08-12T13:43:07.515Z,37.00
2018-08-12T13:45:37.171Z,37.30
2018-08-12T13:48:05.774Z,37.20
2018-08-12T13:50:34.607Z,37.40
2018-08-12T13:53:03.434Z,37.60
2018-08-12T13:58:09.102Z,37.90
2018-08-12T14:00:38.008Z,38.10
2018-08-12T14:03:06.468Z,38.40
2018-08-12T14:05:34.946Z,38.50
2018-08-12T14:08:03.333Z,38.30
2018-08-12T14:10:31.692Z,38.40
2018-08-12T14:13:00.086Z,38.50
2018-08-12T14:15:28.516Z,38.70
2018-08-12T14:17:57.065Z,38.70
2018-08-12T14:20:25.487Z,38.40
2018-08-12T14:22:54.110Z,38.30
2018-08-12T14:25:22.678Z,38.30
2018-08-12T14:27:51.103Z,38.50
2018-08-12T14:30:20.906Z,38.60
2018-08-12T14:32:49.738Z,38.80
2018-08-12T14:35:18.360Z,38.90
2018-08-12T14:37:46.921Z,38.90
2018-08-12T14:40:15.748Z,38.90
2018-08-12T14:42:44.638Z,39.00
2018-08-12T14:45:14.689Z,39.10
2018-08-12T14:47:43.373Z,38.90
2018-08-12T14:50:13.570Z,38.90
2018-08-12T14:52:42.108Z,39.10
2018-08-12T14:55:11.199Z,39.30
2018-08-12T14:57:40.184Z,39.40
2018-08-12T15:00:10.896Z,39.60
2018-08-12T15:02:39.325Z,39.60
2018-08-12T15:05:07.809Z,39.80
2018-08-12T15:07:36.591Z,39.90
2018-08-12T15:10:06.205Z,39.70
2018-08-12T15:12:34.567Z,39.90
2018-08-12T15:15:02.960Z,39.80
2018-08-12T15:17:31.401Z,39.90
2018-08-12T15:20:00.264Z,40.00
2018-08-12T15:22:28.878Z,39.90
2018-08-12T15:24:57.372Z,39.80
2018-08-12T15:27:26.237Z,39.60
2018-08-12T15:29:55.380Z,39.60
2018-08-12T15:32:23.838Z,39.30
2018-08-12T15:34:53.113Z,39.30
2018-08-12T15:37:21.656Z,39.60
2018-08-12T15:39:50.157Z,39.40
2018-08-12T15:42:18.827Z,39.40
2018-08-12T15:44:47.603Z,39.60
2018-08-12T15:47:16.009Z,39.40
2018-08-12T15:49:44.447Z,39.30
2018-08-12T15:52:12.889Z,39.40
2018-08-12T15:54:41.386Z,39.60
2018-08-12T15:57:10.053Z,39.50
2018-08-12T15:59:38.430Z,39.60
2018-08-12T16:02:07.829Z,39.70
2018-08-12T16:04:36.858Z,39.60
2018-08-12T16:07:08.394Z,39.60
2018-08-12T16:09:37.071Z,39.50
2018-08-12T16:12:06.424Z,39.70
2018-08-12T16:14:34.875Z,39.70
2018-08-12T16:17:03.287Z,39.90
2018-08-12T16:19:31.751Z,39.80
2018-08-12T16:22:00.291Z,40.00
2018-08-12T16:24:28.620Z,40.00
2018-08-12T16:26:57.528Z,39.80
2018-08-12T16:29:41.128Z,39.90
2018-08-12T16:32:09.568Z,40.00
2018-08-12T16:34:40.625Z,39.80
2018-08-12T16:37:09.164Z,39.60
2018-08-12T16:39:37.672Z,39.60
2018-08-12T16:42:06.414Z,39.50
2018-08-12T16:44:35.412Z,39.40
2018-08-12T16:47:03.864Z,39.10
2018-08-12T16:49:32.507Z,38.80
2018-08-12T16:52:01.007Z,38.00
2018-08-12T16:54:29.390Z,36.70
2018-08-12T16:56:57.925Z,35.30
2018-08-12T16:59:26.401Z,33.80
2018-08-12T17:01:54.826Z,32.50
2018-08-12T17:04:23.290Z,31.30
2018-08-12T17:06:51.729Z,30.40
2018-08-12T17:09:20.081Z,29.60
2018-08-12T17:11:48.467Z,29.10
2018-08-12T17:14:16.938Z,28.60
2018-08-12T17:16:45.579Z,28.10
2018-08-12T17:19:13.959Z,27.70
2018-08-12T17:21:42.581Z,27.40
2018-08-12T17:24:10.939Z,27.00
2018-08-12T17:26:39.463Z,26.80
2018-08-12T17:29:07.865Z,26.60
2018-08-12T17:31:36.361Z,26.30
2018-08-12T17:34:05.022Z,26.10
2018-08-12T17:36:33.438Z,25.90
2018-08-12T17:39:01.864Z,25.70
2018-08-12T17:41:30.434Z,25.50
2018-08-12T17:43:58.828Z,25.50
2018-08-12T17:46:27.761Z,25.50
2018-08-12T17:48:56.119Z,25.40
2018-08-12T17:51:24.515Z,25.30
2018-08-12T17:53:52.890Z,25.10
2018-08-12T17:56:21.332Z,24.90
2018-08-12T17:58:49.923Z,24.80
2018-08-12T18:01:18.345Z,24.70
2018-08-12T18:03:46.746Z,24.60
2018-08-12T18:06:15.118Z,24.50
2018-08-12T18:08:43.505Z,24.40
2018-08-12T18:11:12.136Z,24.30
2018-08-12T18:13:40.495Z,24.20
2018-08-12T18:16:09.478Z,24.20
2018-08-12T18:18:37.812Z,24.20
2018-08-12T18:21:06.322Z,24.10
2018-08-12T18:23:34.813Z,24.00
2018-08-12T18:26:03.305Z,23.90
2018-08-12T18:28:31.882Z,23.90
2018-08-12T18:31:00.264Z,23.80
2018-08-12T18:33:28.581Z,23.70
2018-08-12T18:35:57.133Z,23.60
2018-08-12T18:38:25.498Z,23.50
2018-08-12T18:40:53.898Z,23.50
2018-08-12T18:43:22.290Z,23.40
2018-08-12T18:45:50.627Z,23.40
2018-08-12T18:48:19.067Z,23.30
2018-08-12T18:50:47.772Z,23.20
2018-08-12T18:53:16.245Z,23.10
2018-08-12T18:55:44.623Z,22.80
2018-08-12T18:58:12.858Z,22.70
2018-08-12T19:00:41.073Z,22.60
2018-08-12T19:03:09.318Z,22.40
2018-08-12T19:05:37.472Z,22.20
2018-08-12T19:08:05.682Z,22.10
2018-08-12T19:10:33.809Z,22.00
2018-08-12T19:13:01.961Z,21.80
2018-08-12T19:15:30.233Z,21.70
2018-08-12T19:17:58.483Z,21.50
2018-08-12T19:20:26.635Z,21.40
2018-08-12T19:22:54.863Z,21.20
2018-08-12T19:25:23.129Z,21.00
2018-08-12T19:27:51.380Z,20.80
2018-08-12T19:30:19.645Z,20.70
2018-08-12T19:32:47.820Z,20.60
2018-08-12T19:35:15.986Z,20.50
2018-08-12T19:37:44.243Z,20.30
2018-08-12T19:40:12.462Z,20.30
2018-08-12T19:42:40.631Z,20.10
2018-08-12T19:45:09.902Z,20.00
2018-08-12T19:47:38.023Z,20.00
2018-08-12T19:50:06.782Z,20.00
2018-08-12T19:52:35.067Z,20.00
2018-08-12T19:55:03.467Z,19.90
2018-08-12T19:57:31.696Z,19.80
2018-08-12T20:00:00.087Z,19.80
2018-08-12T20:02:28.217Z,19.70
2018-08-12T20:04:56.378Z,19.70
2018-08-12T20:07:24.608Z,19.60
2018-08-12T20:09:52.929Z,19.60
2018-08-12T20:12:21.121Z,19.60
2018-08-12T20:14:49.265Z,19.50
2018-08-12T20:17:20.612Z,19.40
2018-08-12T20:19:48.769Z,19.40
2018-08-12T20:22:16.902Z,19.40
2018-08-12T20:24:46.405Z,19.30
2018-08-12T20:27:14.557Z,19.10
2018-08-12T20:29:43.121Z,19.00
2018-08-12T20:32:11.269Z,19.00
2018-08-12T20:34:39.575Z,18.90
2018-08-12T20:37:07.773Z,18.80
2018-08-12T20:39:35.986Z,18.80
2018-08-12T20:42:04.064Z,18.70
2018-08-12T20:44:32.477Z,18.60
2018-08-12T20:47:00.610Z,18.60
2018-08-12T20:49:28.746Z,18.50
2018-08-12T20:51:56.899Z,18.50
2018-08-12T20:54:25.010Z,18.40
2018-08-12T20:56:53.219Z,18.30
2018-08-12T20:59:21.465Z,18.30
2018-08-12T21:01:49.621Z,18.20
2018-08-12T21:04:18.101Z,18.10
2018-08-12T21:06:46.450Z,18.10
2018-08-12T21:09:14.597Z,18.00
2018-08-12T21:11:43.073Z,17.90
2018-08-12T21:14:11.182Z,17.90
2018-08-12T21:16:39.340Z,17.90
2018-08-12T21:19:07.695Z,17.80
2018-08-12T21:21:35.745Z,17.80
2018-08-12T21:24:03.896Z,17.70
2018-08-12T21:26:32.069Z,17.70
2018-08-12T21:29:00.213Z,17.70
2018-08-12T21:31:28.390Z,17.70
2018-08-12T21:33:56.530Z,17.60
2018-08-12T21:36:24.686Z,17.50
2018-08-12T21:38:52.839Z,17.40
2018-08-12T21:41:21.446Z,17.30
2018-08-12T21:43:49.630Z,17.30
2018-08-12T21:46:17.785Z,17.20
2018-08-12T21:48:45.937Z,17.10
2018-08-12T21:51:14.069Z,17.10
2018-08-12T21:53:42.252Z,17.00
2018-08-12T21:56:10.428Z,16.90
2018-08-12T21:58:38.596Z,16.90
2018-08-12T22:01:06.993Z,16.80
2018-08-12T22:03:35.331Z,16.70
2018-08-12T22:06:03.377Z,16.70
2018-08-12T22:08:31.462Z,16.60
2018-08-12T22:10:59.602Z,16.50
2018-08-12T22:13:27.717Z,16.50
2018-08-12T22:15:55.858Z,16.40
2018-08-12T22:18:24.261Z,16.30
2018-08-12T22:20:52.390Z,16.20
2018-08-12T22:23:20.545Z,16.10
2018-08-12T22:25:48.665Z,16.10
2018-08-12T22:28:16.822Z,16.00
2018-08-12T22:30:44.974Z,15.90
2018-08-12T22:33:13.105Z,15.90
2018-08-12T22:35:41.281Z,15.80
2018-08-12T22:38:09.430Z,15.80
2018-08-12T22:40:37.569Z,15.70
2018-08-12T22:43:06.516Z,15.60
2018-08-12T22:45:34.644Z,15.50
2018-08-12T22:48:02.809Z,15.50
2018-08-12T22:50:30.961Z,15.50
2018-08-12T22:52:59.099Z,15.50
2018-08-12T22:55:27.256Z,15.40
2018-08-12T22:57:55.397Z,15.40
2018-08-12T23:00:23.525Z,15.30
2018-08-12T23:02:51.830Z,15.30
2018-08-12T23:05:20.008Z,15.30
2018-08-12T23:07:48.202Z,15.20
2018-08-12T23:10:16.304Z,15.20
2018-08-12T23:12:44.454Z,15.20
2018-08-12T23:15:24.042Z,15.10
2018-08-12T23:17:52.181Z,15.10
2018-08-12T23:20:20.350Z,15.10
2018-08-12T23:22:48.513Z,15.10
2018-08-12T23:25:16.714Z,15.10
2018-08-12T23:27:44.892Z,15.00
2018-08-12T23:30:13.028Z,15.00
2018-08-12T23:32:41.158Z,14.90
2018-08-12T23:35:09.697Z,14.80
2018-08-12T23:37:37.840Z,14.80
2018-08-12T23:40:06.548Z,14.80
2018-08-12T23:42:34.694Z,14.80
2018-08-12T23:45:02.851Z,14.70
2018-08-12T23:47:30.996Z,14.70
2018-08-12T23:49:59.104Z,14.70
2018-08-12T23:52:27.249Z,14.60
2018-08-12T23:54:55.409Z,14.60
2018-08-12T23:57:23.533Z,14.50
2018-08-12T23:59:52.045Z,14.50
